Strona główna
METAR-TAF:

METAR-TAF

Lotnisko :

Front Royal, Wirginia, Stany Zjednoczone

Szerokość geograficzna: 38-55-03N, Długość geograficzna: 078-15-12W, wysokość: 216 m

Aktualna obserwacja pogody

Raport powstał 22 minut temu, godzina 01:55 UTC
Wiatr 6 kt od zachód
Temperatura 28°C
Wilgotność 45%
Ciśnienie 1009 hPa
Widzialność: 16.1 km
bezchmurnie

METAR: KFRR 040155Z AUTO 27006KT 10SM CLR 28/15 A2979 RMK AO1

czas: 22:17 (02:17 UTC)


TAF: brakujący

Obserwacja i prognoza pogody dla ponad 4000 lotnisk (raport METAR i TAF).

Dostępne stacje oznaczono żółtymi i czerwonymi punktami na mapie.

Najedź kursorem aby zobaczyć nazwę stacji.

Kliknij aby zobaczyć obserwacje i prognozy pogody.

Aby zmienić mapę: kliknij na zielony przycisk z czarnym krzyżykiem, aby powiększyć; na zielony przycisk z myślnikiem, aby pomniejszyć; na zielone strzałki, aby przejść do map sąsiednich.


METAR-TAF: